createdAt,value
2022-11-03T18:23:15.653Z,4.75
2022-11-03T18:28:18.775Z,4.50
2022-11-03T18:33:26.868Z,5.00
2022-11-03T18:38:37.300Z,4.00
2022-11-03T18:43:41.165Z,4.75
2022-11-03T18:54:14.805Z,3.00
2022-11-03T18:59:23.087Z,4.00
2022-11-03T19:04:26.239Z,4.25
2022-11-03T19:09:34.470Z,4.00
2022-11-03T19:14:39.312Z,3.00
2022-11-03T19:19:45.214Z,3.00
2022-11-03T19:24:54.911Z,4.25
2022-11-03T19:30:01.144Z,6.75
2022-11-03T19:35:07.841Z,5.25
2022-11-03T19:40:20.532Z,6.75
2022-11-03T19:56:12.573Z,5.00
2022-11-03T20:07:01.057Z,7.75
2022-11-03T20:12:46.982Z,4.50
2022-11-03T20:17:51.250Z,7.00
2022-11-03T20:33:43.605Z,5.75
2022-11-03T20:44:08.564Z,5.00
2022-11-03T20:54:47.455Z,6.25
2022-11-03T20:59:50.325Z,5.00
2022-11-03T21:04:53.090Z,4.50
2022-11-03T21:10:03.294Z,6.25
2022-11-03T21:15:18.714Z,6.50
2022-11-03T21:20:22.420Z,5.25
2022-11-03T21:25:35.433Z,4.00
2022-11-03T21:30:38.439Z,5.25
2022-11-03T21:35:42.816Z,6.75
2022-11-03T21:40:56.309Z,11.00
2022-11-03T21:51:22.182Z,4.50
2022-11-03T21:56:25.942Z,4.00
2022-11-03T22:01:28.824Z,6.50
2022-11-03T22:06:37.752Z,7.00
2022-11-03T22:17:10.071Z,5.50
2022-11-03T22:22:17.721Z,7.50
2022-11-03T22:27:20.686Z,5.00
2022-11-03T22:32:28.793Z,8.25
2022-11-03T22:53:10.515Z,8.75
2022-11-03T22:58:14.024Z,9.00
2022-11-03T23:08:44.488Z,15.25
2022-11-03T23:13:50.274Z,10.75
2022-11-03T23:29:31.316Z,12.50
2022-11-03T23:34:34.070Z,10.25
2022-11-03T23:55:42.863Z,9.75
